Rubio, Iowa
Current Conditions -  °F | °C
As of 8:15 AM on Thursday 27 Nov 2014 (Local Time) from KFFL Reporting Station
Light Snow Light Snow  
Wind Chill: -4°   Ceiling: 2400
Heat Index: 12°   Visibility: 10mi
Dew Point:   Wind: 15mph
Humidity: 73%   Direction: 290°WNW
Pressure: 30.48"   Gusts: NA
Location:  41.202°N, 91.9548°W
Report Text: KFFL 271415Z AUTO 29013KT 10SM -SN OVC024 M11/M15 A3048 RMK AO2
Loading
Personal Weather Stations






























Interactive Weather Map New forecast layout! Learn more

10-Day Weather Forecast

Advertisements
Track Severe Weather on mobile